Latest Weather Observations for Strahan

IDT60801

Issued at 2:02 pm EST Wednesday 24 May 2017 (issued every 30 minutes, with the page automatically refreshed every 10 minutes)

About weather observations | Map of weather stations | Latest weather observations for TAS | Other Formats
Station Details ID: 097072 Name: STRAHAN AERODROME Lat: -42.16 Lon: 145.29 Height: 21.0 m
Data from the previous 72 hours. | See also: Recent months at Strahan
Date/Time
EST
Temp
°C
App
Temp
°C
Dew
Point
°C
Rel
Hum
%
Delta-T
°C
Wind Press
QNH
hPa
Press
MSL
hPa
Rain since
9am
mm
Dir  Spd
km/h
Gust
km/h
Spd
kts
Gust
kts
24/02:00pm 12.2 9.5 8.9 80 1.7 WNW 13 20 7 11 1010.2 1010.3 2.2
24/01:30pm 11.9 8.6 9.5 85 1.2 WNW 17 28 9 15 1010.2 1010.3 2.2
24/01:26pm 11.5 7.7 9.2 86 1.2 WNW 19 28 10 15 1010.3 1010.4 2.2
24/01:09pm 10.6 5.2 7.8 83 1.4 W 26 37 14 20 1010.4 1010.5 2.2
24/01:00pm 12.8 7.3 7.7 71 2.5 WNW 26 33 14 18 1010.0 1010.1 1.4
24/12:30pm 12.9 8.6 9.4 79 1.8 W 22 33 12 18 1009.9 1010.0 1.4
24/12:00pm 12.3 7.6 9.3 82 1.5 WSW 24 32 13 17 1009.9 1010.0 1.4
24/11:48am 11.4 6.6 7.3 76 2.0 W 22 39 12 21 1009.9 1010.0 1.4
24/11:30am 11.3 6.7 8.0 80 1.6 W 22 35 12 19 1009.9 1010.0 1.4
24/11:28am 11.5 7.1 7.6 77 1.9 WNW 20 35 11 19 1010.0 1010.1 1.2
24/11:00am 11.7 7.1 8.0 78 1.8 WNW 22 33 12 18 1009.9 1010.0 0.2
24/10:50am 11.7 5.9 7.8 77 1.9 WNW 28 46 15 25 1009.9 1010.0 0.2
24/10:30am 12.2 6.6 7.3 72 2.4 W 26 39 14 21 1009.8 1009.9 0.2
24/10:16am 13.0 8.5 8.7 75 2.2 W 22 35 12 19 1009.6 1009.7 0.2
24/10:00am 12.0 10.5 9.0 82 1.5 WNW 7 13 4 7 1009.3 1009.4 0.2
24/09:32am 10.2 4.2 6.9 80 1.6 WNW 28 50 15 27 1009.2 1009.3 0.2
24/09:30am 10.8 5.6 7.3 79 1.7 W 24 50 13 27 1009.2 1009.3 0.0
24/09:00am 11.8 7.7 7.7 76 2.0 WNW 19 26 10 14 1008.9 1009.0 13.8
24/08:30am 10.7 3.8 6.5 75 2.0 W 32 44 17 24 1008.8 1008.9 13.8
24/08:00am 11.4 4.6 6.9 74 2.1 W 32 43 17 23 1008.2 1008.3 13.8
24/07:30am 11.5 5.1 7.0 74 2.1 W 30 46 16 25 1007.8 1007.9 13.8
24/07:00am 11.8 6.1 8.3 79 1.7 WNW 28 43 15 23 1007.2 1007.2 13.6
24/06:30am 11.7 6.0 8.4 80 1.6 WNW 28 46 15 25 1006.5 1006.5 13.6
24/06:19am 11.9 6.6 10.0 88 1.0 WNW 28 44 15 24 1006.3 1006.3 13.6
24/06:09am 11.8 8.3 10.9 94 0.5 NNW 20 41 11 22 1006.2 1006.2 13.6
24/06:00am 11.2 8.1 10.4 95 0.4 NNW 17 22 9 12 1006.1 1006.1 13.4
24/05:53am 10.8 7.2 9.9 94 0.5 N 19 28 10 15 1006.2 1006.2 13.4
24/05:30am 10.9 7.7 10.0 94 0.5 N 17 20 9 11 1006.1 1006.1 12.2
24/05:00am 11.2 7.2 10.4 95 0.4 N 22 30 12 16 1005.8 1005.8 10.0
24/04:43am 11.3 6.5 10.2 93 0.6 N 26 48 14 26 1006.1 1006.1 8.4
24/04:33am 10.9 8.4 9.8 93 0.6 N 13 19 7 10 1006.2 1006.2 7.2
24/04:30am 10.9 8.8 9.8 93 0.6 N 11 15 6 8 1006.1 1006.1 6.2
24/04:00am 11.0 7.7 9.6 91 0.7 N 17 20 9 11 1005.8 1005.8 5.4
24/03:30am 11.0 8.1 9.6 91 0.7 N 15 19 8 10 1005.9 1005.9 4.8
24/03:00am 11.1 7.4 9.4 89 0.9 N 19 24 10 13 1006.1 1006.1 4.6
24/02:30am 10.3 7.6 8.9 91 0.7 NNE 13 19 7 10 1006.3 1006.3 4.6
24/02:00am 10.2 7.5 9.0 92 0.6 NNE 13 17 7 9 1006.8 1006.8 4.6
24/01:30am 10.5 7.9 9.3 92 0.6 NNE 13 17 7 9 1007.3 1007.3 4.6
24/01:00am 10.8 8.2 9.4 91 0.7 NNE 13 17 7 9 1007.8 1007.9 4.6
24/12:30am 11.0 8.5 9.8 92 0.6 NNE 13 19 7 10 1008.5 1008.6 4.6
24/12:00am 11.1 8.6 9.7 91 0.7 NNE 13 15 7 8 1009.0 1009.1 3.8
 
Date/Time
EST
Temp
°C
App
Temp
°C
Dew
Point
°C
Rel
Hum
%
Delta-T
°C
Wind Press
QNH
hPa
Press
MSL
hPa
Rain since
9am
mm
Dir  Spd
km/h
Gust
km/h
Spd
kts
Gust
kts
23/11:30pm 11.4 8.8 9.5 88 1.0 NNE 13 19 7 10 1009.2 1009.3 3.2
23/11:00pm 11.1 8.5 9.2 88 1.0 NNE 13 15 7 8 1009.5 1009.6 3.2
23/10:30pm 11.0 8.0 9.1 88 0.9 NNE 15 19 8 10 1009.8 1009.9 3.0
23/10:00pm 10.8 8.1 9.1 89 0.8 NNE 13 17 7 9 1010.1 1010.2 3.0
23/09:30pm 10.6 7.5 8.9 89 0.8 NNE 15 20 8 11 1010.3 1010.4 3.0
23/09:00pm 10.6 7.5 9.0 90 0.8 NNE 15 19 8 10 1010.4 1010.5 3.0
23/08:30pm 10.7 7.7 9.3 91 0.7 NNE 15 17 8 9 1010.6 1010.7 3.0
23/08:00pm 10.7 8.1 9.3 91 0.7 NNE 13 17 7 9 1010.8 1010.9 3.0
23/07:30pm 11.0 8.5 9.6 91 0.7 NNE 13 17 7 9 1011.0 1011.1 3.0
23/07:00pm 10.9 7.8 9.0 88 0.9 NNE 15 17 8 9 1010.9 1011.0 3.0
23/06:30pm 11.1 8.0 8.8 86 1.1 N 15 17 8 9 1010.9 1011.0 3.0
23/06:00pm 12.1 9.6 9.8 86 1.2 N 13 15 7 8 1010.9 1011.0 3.0
23/05:30pm 12.2 9.8 9.9 86 1.2 N 13 19 7 10 1011.1 1011.2 3.0
23/05:00pm 12.3 10.3 10.2 87 1.1 N 11 13 6 7 1011.1 1011.2 3.0
23/04:30pm 12.7 11.2 10.6 87 1.1 N 9 11 5 6 1011.0 1011.1 3.0
23/04:00pm 13.4 11.1 10.6 83 1.5 NNW 13 17 7 9 1011.1 1011.2 3.0
23/03:30pm 14.3 11.4 10.9 80 1.8 NW 17 22 9 12 1011.1 1011.2 3.0
23/03:00pm 14.9 12.3 12.0 83 1.6 NNW 17 22 9 12 1011.1 1011.2 3.0
23/02:30pm 14.8 12.0 12.5 86 1.3 NNW 19 24 10 13 1011.2 1011.3 3.0
23/02:00pm 14.6 12.8 12.1 85 1.4 NNW 13 17 7 9 1011.4 1011.5 3.0
23/01:30pm 14.8 11.7 12.3 85 1.4 NNW 20 28 11 15 1011.9 1012.0 3.0
23/01:00pm 14.6 11.5 11.7 83 1.6 NNW 19 22 10 12 1012.0 1012.1 3.0
23/12:30pm 14.4 11.1 11.7 84 1.5 NW 20 24 11 13 1012.5 1012.6 3.0
23/12:00pm 14.2 11.7 12.2 88 1.1 NNW 17 22 9 12 1012.8 1012.9 3.0
23/11:30am 13.3 10.3 12.0 92 0.7 N 19 26 10 14 1013.0 1013.1 3.0
23/11:22am 13.4 10.9 12.3 93 0.6 N 17 26 9 14 1013.0 1013.1 3.0
23/11:00am 13.1 10.4 11.8 92 0.7 NW 17 22 9 12 1013.3 1013.4 2.6
23/10:46am 13.8 10.8 11.8 88 1.1 NNW 19 26 10 14 1013.5 1013.6 1.4
23/10:30am 14.4 12.2 12.1 86 1.2 N 15 22 8 12 1013.3 1013.4 0.2
23/10:00am 14.7 11.4 11.5 81 1.7 N 20 28 11 15 1013.3 1013.4 0.0
23/09:30am 15.0 11.3 11.4 79 1.9 N 22 35 12 19 1013.4 1013.5 0.0
23/09:00am 14.5 10.7 11.3 81 1.7 N 22 33 12 18 1013.6 1013.7 1.8
23/08:30am 14.5 11.1 11.3 81 1.7 N 20 28 11 15 1013.5 1013.6 1.8
23/08:00am 14.2 10.8 11.2 82 1.6 N 20 30 11 16 1013.5 1013.6 1.8
23/07:30am 13.9 10.0 10.9 82 1.6 N 22 32 12 17 1013.3 1013.4 1.8
23/07:00am 14.0 10.6 11.3 84 1.4 N 20 30 11 16 1013.2 1013.3 1.8
23/06:30am 13.7 10.6 11.6 87 1.1 N 19 28 10 15 1013.3 1013.4 1.8
23/06:00am 13.7 10.5 11.8 88 1.0 N 20 30 11 16 1013.2 1013.3 1.8
23/05:30am 13.7 10.7 12.1 90 0.9 N 19 26 10 14 1012.9 1013.0 1.8
23/05:00am 13.7 10.6 12.1 90 0.9 N 20 28 11 15 1013.1 1013.2 1.8
23/04:30am 14.2 9.4 11.7 85 1.3 N 28 39 15 21 1013.3 1013.4 1.2
23/04:00am 14.6 10.5 11.4 81 1.7 N 24 37 13 20 1013.0 1013.1 0.8
23/03:30am 15.0 10.8 11.0 77 2.1 N 24 35 13 19 1012.7 1012.8 0.6
23/03:00am 14.6 11.1 11.0 79 1.9 NNE 20 35 11 19 1012.7 1012.8 0.6
23/02:30am 15.1 9.3 10.7 75 2.3 N 32 46 17 25 1013.1 1013.2 0.4
23/02:11am 16.2 10.1 9.8 66 3.3 NNE 32 50 17 27 1012.9 1013.0 0.0
23/02:00am 16.0 10.7 9.7 66 3.3 NNE 28 44 15 24 1012.9 1013.0 0.0
23/01:30am 15.7 10.8 10.0 69 3.0 NNE 26 41 14 22 1013.0 1013.1 0.0
23/01:00am 15.4 10.7 10.6 73 2.5 NNE 26 41 14 22 1013.5 1013.6 0.0
23/12:30am 16.0 10.9 10.5 70 2.9 NNE 28 43 15 23 1014.3 1014.4 0.0
23/12:18am 16.1 11.0 10.6 70 2.9 NNE 28 48 15 26 1014.3 1014.4 0.0
23/12:00am 16.0 10.9 10.7 71 2.8 NNE 28 39 15 21 1014.5 1014.6 0.0
 
Date/Time
EST
Temp
°C
App
Temp
°C
Dew
Point
°C
Rel
Hum
%
Delta-T
°C
Wind Press
QNH
hPa
Press
MSL
hPa
Rain since
9am
mm
Dir  Spd
km/h
Gust
km/h
Spd
kts
Gust
kts
22/11:30pm 15.9 11.3 10.9 72 2.7 NNE 26 39 14 21 1014.6 1014.7 0.0
22/11:00pm 15.9 10.4 10.7 71 2.8 NNE 30 43 16 23 1014.7 1014.8 0.0
22/10:30pm 16.0 10.2 10.7 71 2.8 NNE 32 46 17 25 1015.1 1015.2 0.0
22/10:00pm 15.6 10.9 10.6 72 2.6 NNE 26 41 14 22 1015.2 1015.3 0.0
22/09:30pm 16.0 10.8 10.1 68 3.1 NNE 28 43 15 23 1014.9 1015.0 0.0
22/09:00pm 15.8 11.3 10.1 69 3.0 NNE 24 37 13 20 1014.6 1014.7 0.0
22/08:30pm 15.8 10.9 10.1 69 3.0 NNE 26 37 14 20 1014.7 1014.8 0.0
22/08:00pm 15.5 11.0 10.1 70 2.8 NNE 24 39 13 21 1015.0 1015.1 0.0
22/07:30pm 15.4 11.7 10.0 70 2.8 NNE 20 32 11 17 1015.2 1015.3 0.0
22/07:00pm 15.3 11.8 10.1 71 2.7 NNE 19 24 10 13 1015.2 1015.3 0.0
22/06:30pm 15.2 11.7 10.2 72 2.6 NNE 19 24 10 13 1015.2 1015.3 0.0
22/06:00pm 15.2 11.8 10.4 73 2.5 NNE 19 26 10 14 1015.2 1015.3 0.0
22/05:30pm 15.1 12.1 10.5 74 2.4 NNE 17 22 9 12 1015.4 1015.5 0.0
22/05:00pm 15.9 13.3 10.7 71 2.8 NNE 15 20 8 11 1015.7 1015.7 0.0
22/04:30pm 16.8 14.3 10.9 68 3.2 N 15 20 8 11 1015.5 1015.6 0.0
22/04:00pm 17.1 14.9 10.9 67 3.3 N 13 19 7 10 1015.5 1015.6 0.0
22/03:30pm 18.4 15.6 11.5 64 3.8 NNE 17 26 9 14 1015.7 1015.7 0.0
22/03:00pm 19.1 16.4 11.7 62 4.1 N 17 26 9 14 1015.8 1015.8 0.0
22/02:30pm 19.2 15.9 11.5 61 4.2 NNE 20 30 11 16 1015.9 1015.9 0.0
22/02:00pm 19.7 16.8 12.2 62 4.2 N 19 26 10 14 1016.1 1016.1 0.0
22/01:30pm 19.7 16.9 12.5 63 4.0 N 19 26 10 14 1016.5 1016.5 0.0
22/01:00pm 19.2 16.7 12.2 64 3.9 N 17 32 9 17 1017.0 1017.0 0.0
22/12:30pm 18.9 16.0 12.2 65 3.7 N 19 26 10 14 1017.3 1017.3 0.0
22/12:00pm 18.8 15.9 12.3 66 3.6 N 19 26 10 14 1017.7 1017.7 0.0
22/11:30am 18.6 16.2 12.6 68 3.4 N 17 24 9 13 1018.1 1018.1 0.0
22/11:00am 18.0 15.4 12.0 68 3.3 N 17 24 9 13 1018.5 1018.5 0.0
22/10:30am 17.9 16.3 12.8 72 2.9 N 13 19 7 10 1018.7 1018.7 0.0
22/10:00am 16.7 14.5 12.0 74 2.6 N 15 20 8 11 1018.8 1018.8 0.0
22/09:30am 15.5 13.9 11.5 77 2.2 NNE 11 17 6 9 1019.1 1019.1 0.0
22/09:00am 14.3 12.6 11.1 81 1.7 NNE 11 15 6 8 1019.2 1019.2 0.4
22/08:30am 13.1 10.8 10.5 84 1.4 NNE 13 17 7 9 1019.0 1019.0 0.4
22/08:00am 12.3 9.9 10.0 86 1.2 NNE 13 17 7 9 1018.8 1018.8 0.4
22/07:30am 12.6 9.8 10.1 85 1.3 NNE 15 20 8 11 1018.5 1018.5 0.4
22/07:00am 12.3 9.9 10.0 86 1.2 NNE 13 17 7 9 1018.4 1018.4 0.4
22/06:30am 12.4 10.0 10.1 86 1.2 NNE 13 17 7 9 1018.3 1018.3 0.4
22/06:00am 12.2 9.8 9.9 86 1.2 NNE 13 17 7 9 1018.3 1018.3 0.4
22/05:30am 12.3 9.5 10.0 86 1.2 NNE 15 20 8 11 1018.2 1018.2 0.4
22/05:00am 11.6 8.8 9.9 89 0.9 NNE 15 19 8 10 1018.1 1018.1 0.4
22/04:30am 10.9 8.3 9.3 90 0.8 NNE 13 17 7 9 1018.1 1018.1 0.4
22/04:00am 10.9 8.3 9.3 90 0.8 NNE 13 17 7 9 1018.1 1018.1 0.4
22/03:30am 11.0 8.5 9.6 91 0.7 NNE 13 17 7 9 1018.1 1018.1 0.4
22/03:00am 10.8 8.6 9.4 91 0.7 NNE 11 15 6 8 1018.2 1018.2 0.4
22/02:30am 11.4 8.9 9.8 90 0.8 NNE 13 15 7 8 1018.4 1018.4 0.2
22/02:00am 10.9 8.8 9.7 92 0.6 NNE 11 15 6 8 1018.3 1018.3 0.2
22/01:30am 11.0 8.5 9.8 92 0.6 NNE 13 15 7 8 1018.4 1018.4 0.2
22/01:00am 11.3 8.9 10.0 92 0.7 NNE 13 17 7 9 1018.4 1018.4 0.2
22/12:30am 11.2 8.8 10.1 93 0.6 NNE 13 15 7 8 1018.5 1018.5 0.2
22/12:00am 11.2 8.8 10.1 93 0.6 NNE 13 15 7 8 1018.5 1018.5 0.2
 
Date/Time
EST
Temp
°C
App
Temp
°C
Dew
Point
°C
Rel
Hum
%
Delta-T
°C
Wind Press
QNH
hPa
Press
MSL
hPa
Rain since
9am
mm
Dir  Spd
km/h
Gust
km/h
Spd
kts
Gust
kts
21/11:30pm 11.5 9.6 10.4 93 0.6 NNE 11 15 6 8 1018.6 1018.6 0.2
21/11:00pm 11.6 9.4 10.7 94 0.5 NNE 13 15 7 8 1018.5 1018.5 0.2
21/10:30pm 11.6 9.4 10.7 94 0.5 NNE 13 15 7 8 1018.6 1018.6 0.2
21/10:00pm 11.8 9.6 10.7 93 0.6 NNE 13 15 7 8 1018.7 1018.7 0.2
21/09:30pm 11.8 10.3 10.7 93 0.6 NNE 9 11 5 6 1018.8 1018.8 0.2
21/09:00pm 12.4 10.7 11.3 93 0.6 NNE 11 11 6 6 1018.6 1018.6 0.2
21/08:30pm 13.0 11.5 11.9 93 0.6 NNE 11 13 6 7 1018.3 1018.3 0.2
21/08:00pm 13.0 11.1 11.7 92 0.7 N 13 17 7 9 1018.1 1018.1 0.2
21/07:30pm 13.7 12.4 12.6 93 0.6 N 11 15 6 8 1018.0 1018.0 0.2
21/07:00pm 13.9 12.7 12.8 93 0.6 N 11 15 6 8 1017.9 1017.9 0.2
21/06:30pm 14.3 12.9 13.3 94 0.6 N 13 17 7 9 1017.6 1017.6 0.2
21/06:00pm 14.5 12.7 13.4 93 0.6 NNW 15 20 8 11 1017.5 1017.5 0.2
21/05:30pm 14.6 12.1 13.5 93 0.6 NNW 19 24 10 13 1017.2 1017.2 0.2
21/05:23pm 14.6 12.1 13.5 93 0.6 NW 19 24 10 13 1017.1 1017.1 0.2
21/05:00pm 14.7 12.2 13.6 93 0.6 NNW 19 26 10 14 1017.0 1017.0 0.2
21/04:47pm 14.6 12.1 13.5 93 0.6 NNW 19 24 10 13 1016.9 1016.9 0.2
21/04:38pm 14.6 12.1 13.5 93 0.6 NNW 19 24 10 13 1016.8 1016.8 0.2
21/04:30pm 14.7 12.2 13.6 93 0.6 NNW 19 22 10 12 1016.7 1016.7 0.2
21/04:22pm 14.7 12.5 13.4 92 0.7 NNW 17 22 9 12 1016.7 1016.7 0.2
21/04:00pm 14.7 12.0 13.4 92 0.7 NNW 20 26 11 14 1016.6 1016.6 0.2
21/03:30pm 15.1 12.0 13.5 90 0.9 NNW 22 30 12 16 1016.5 1016.5 0.2
21/03:00pm 15.0 12.9 13.5 91 0.8 NNW 17 22 9 12 1016.2 1016.2 0.2
21/02:39pm 14.5 11.8 13.0 91 0.8 NNW 19 22 10 12 1016.2 1016.2 0.2
21/02:30pm 14.5 12.2 12.9 90 0.9 NNW 17 20 9 11 1016.2 1016.2 0.2
21/02:23pm 14.6 11.9 12.8 89 1.0 NNW 19 22 10 12 1016.1 1016.1 0.2

Other Formats:

Comma delimited format used in spreadsheet applications
http://www.bom.gov.au/fwo/IDT60801/IDT60801.94956.axf

JavaScript Object Notation format (JSON) in row-major order
http://www.bom.gov.au/fwo/IDT60801/IDT60801.94956.json